Steptoe Valley WMA, Nevada Weather observations

Data are for 10 minute period ending at time listed.
 Day   Time   Solar   Ave.   Ave.  Ave.  Vector  Max.   Baro.   Total    
  of    of     Rad.   Air    Rel.  Wind   Wind   Wind  Press.  Precip.   
Year   Day            Temp.  Hum.  Speed  Dir.   Gust                    
2017   (PST)  Kw/m2    F      %     mph   deg.    mph    mb.     in.     
-------------------------------------------------------------------------
  83    5:00   0.00   20.0    89    6.3   163     8.5   806.0    0.00 
  83    5:10   0.00   20.2    89    5.5   165     7.7   805.9    0.00 
  83    5:20   0.00   21.4    90    5.4   175     7.3   805.9    0.00 
  83    5:30   0.00   21.3    88    5.3   179     7.9   805.9    0.00 
  83    5:40   0.00   21.3    88    4.4   172     7.0   805.9    0.00 
  83    5:50   0.01   21.2    86    4.1   173     6.1   805.9    0.00 
  83    6:00   0.01   22.6    87    6.1   145     8.9   806.0    0.00 
  83    6:10   0.01   24.4    81    6.8   146     9.7   806.1    0.00 
  83    6:20   0.02   24.2    81    6.8   151     9.1   806.1    0.00 
  83    6:30   0.02   24.4    81    6.0   180     8.2   806.3    0.00 
  83    6:40   0.08   24.7    83    5.8   180     8.1   806.4    0.00 
  83    6:50   0.18   26.5    81    5.8   174     8.2   806.4    0.00 
  83    7:00   0.21   28.3    79    5.7   169     8.4   806.4    0.00 
  83    7:10   0.25   29.8    75    6.7   174    10.4   806.4    0.00 
  83    7:20   0.28   31.3    76    5.9   190     8.0   806.6    0.00 
  83    7:30   0.32   32.8    72    6.4   181     8.6   806.5    0.00 
  83    7:40   0.35   34.1    68    6.9   184     9.5   806.3    0.00 
  83    7:50   0.39   34.5    68    7.6   193    10.2   806.2    0.00 
  83    8:00   0.42   34.4    71    7.9   202    11.2   806.4    0.00 
  83    8:10   0.45   35.0    66    8.9   195    11.7   806.3    0.00 
  83    8:20   0.49   36.6    63    8.5   181    11.8   806.3    0.00 
  83    8:30   0.52   38.6    56    6.8   169     9.6   806.4    0.00 
  83    8:40   0.55   40.4    51    6.0   174     8.9   806.3    0.00 
  83    8:50   0.58   42.1    49    6.6   168     9.6   806.2    0.00 
  83    9:00   0.61   43.1    45    7.2   158     9.9   806.0    0.00 
  83    9:10   0.63   44.9    40    7.1   168    11.8   805.9    0.00 
  83    9:20   0.66   46.5    33    8.0   179    11.8   805.9    0.00 
  83    9:30   0.68   47.8    31    8.6   170    12.9   805.8    0.00 
  83    9:40   0.70   48.7    28    9.1   167    13.0   805.6    0.00 
  83    9:50   0.72   49.8    28    8.8   170    13.8   805.6    0.00 
  83   10:00   0.74   50.3    28   10.6   170    17.5   805.5    0.00 
  83   10:10   0.76   51.1    27   10.5   171    16.9   805.4    0.00 
  83   10:20   0.78   52.2    27    8.9   173    15.1   805.4    0.00 
  83   10:30   0.79   52.9    25    9.3   164    16.4   805.3    0.00 
  83   10:40   0.80   53.3    25    9.2   147    16.3   805.1    0.00 
  83   10:50   0.80   53.4    27   12.0   166    20.0   804.8    0.00 
  83   11:00   0.84   54.1    27   13.0   162    19.9   804.7    0.00 
  83   11:10   0.74   54.6    27   12.2   160    19.6   804.5    0.00 
  83   11:20   0.64   53.8    28   11.6   167    18.8   804.5    0.00 
  83   11:30   0.89   55.5    27   12.5   166    19.1   804.4    0.00 
  83   11:40   0.89   56.2    27   12.8   160    18.0   804.4    0.00 
  83   11:50   0.89   56.1    26   14.9   162    22.8   804.3    0.00 
  83   12:00   0.80   55.9    26   14.1   164    20.8   804.4    0.00 
  83   12:10   0.48   55.2    28   12.6   162    20.0   804.3    0.00 
  83   12:20   0.51   54.6    29   11.9   159    19.4   804.1    0.00 
  83   12:30   0.51   54.7    29   10.7   151    17.4   804.0    0.00 
  83   12:40   0.41   54.3    29   10.9   163    19.1   803.9    0.00 
  83   12:50   0.44   54.4    30   12.8   165    21.4   803.8    0.00 
  83   13:00   0.47   54.2    30   15.2   173    21.1   803.5    0.00 
  83   13:10   0.34   53.2    31   13.2   174    20.5   803.6    0.00 
  83   13:20   0.34   53.2    32   12.4   176    17.2   803.6    0.00 
  83   13:30   0.44   53.7    32   13.0   173    18.6   803.5    0.00 
  83   13:40   0.71   55.0    30   13.5   170    20.1   803.5    0.00 
  83   13:50   0.82   56.6    28   12.6   164    18.9   803.3    0.00 
  83   14:00   0.67   56.4    28   12.5   166    19.1   803.1    0.00 
  83   14:10   0.58   55.9    28   12.7   174    18.4   803.1    0.00 
  83   14:20   0.56   55.9    27   12.7   165    18.2   803.0    0.00 
  83   14:30   0.43   56.0    26   14.5   163    20.5   802.9    0.00 
  83   14:40   0.39   55.0    26   14.7   173    20.1   802.9    0.00 
  83   14:50   0.26   54.0    27   13.0   178    19.1   802.9    0.00 
  83   15:00   0.26   53.5    27   11.8   174    16.1   802.8    0.00 
  83   15:10   0.58   56.0    25   11.8   175    20.3   802.6    0.00 
  83   15:20   0.39   56.0    25   13.5   179    20.0   802.3    0.00 
  83   15:30   0.25   54.4    27   13.0   178    19.4   802.0    0.00 
  83   15:40   0.24   54.1    28   13.2   179    18.6   801.9    0.00 
  83   15:50   0.22   54.0    29   11.0   179    16.3   801.8    0.00 
  83   16:00   0.22   53.9    30   12.9   172    19.1   801.7    0.00 
  83   16:10   0.23   54.0    30   14.1   170    21.6   801.6    0.00 
  83   16:20   0.15   53.0    31   14.3   171    20.4   801.6    0.00 
  83   16:30   0.13   52.2    33   13.3   175    18.9   801.7    0.00 
  83   16:40   0.13   52.1    34   10.7   172    15.4   801.7    0.00 
  83   16:50   0.19   52.8    32   10.1   174    14.0   801.8    0.00 
  83   17:00   0.22   54.4    30    9.7   185    14.0   801.7    0.00 
  83   17:10   0.17   54.4    30    9.3   187    13.6   801.7    0.00 
  83   17:20   0.04   51.8    32    8.4   177    12.8   801.6    0.00 
  83   17:30   0.02   49.6    35    6.1   150     9.7   801.7    0.00 
  83   17:40   0.02   47.6    37    5.9   164     9.2   801.7    0.00 
  83   17:50   0.02   47.3    42    6.0   143     9.7   801.9    0.00 
  83   18:00   0.01   45.1    46    5.4   166     7.2   801.9    0.00 
  83   18:10   0.00   44.6    45    6.9   171     9.6   801.9    0.00 
  83   18:20   0.00   44.0    48    7.6   168    10.1   801.9    0.00 
  83   18:30   0.00   45.1    43    9.6   164    13.3   801.9    0.00 
  83   18:40   0.00   45.8    40    9.4   164    14.2   801.9    0.00 
  83   18:50   0.00   45.6    40    9.2   158    12.8   801.9    0.00 
  83   19:00   0.00   44.9    43    7.5   156    12.6   802.0    0.00 
  83   19:10   0.00   44.1    45    7.2   158    11.8   802.1    0.00 
  83   19:20   0.00   44.2    45    7.9   160    11.2   802.3    0.00 
  83   19:30   0.00   44.3    44    7.5   156    11.0   802.4    0.00 
  83   19:40   0.00   44.7    43    7.7   152    11.8   802.5    0.00 
  83   19:50   0.00   45.5    41    8.8   151    13.5   802.4    0.00 
  83   20:00   0.00   45.9    40    9.3   162    13.0   802.4    0.00 
  83   20:10   0.00   45.9    40    9.1   166    12.9   802.6    0.00 
  83   20:20   0.00   45.5    41    8.6   161    12.3   802.6    0.00 
  83   20:30   0.00   45.1    43    8.6   163    11.5   802.7    0.00 
  83   20:40   0.00   45.0    43    8.0   168    11.7   802.8    0.00 
  83   20:50   0.00   45.0    43    8.4   159    12.1   802.9    0.00 
  83   21:00   0.00   45.3    42    8.4   150    11.8   802.9    0.00 
  83   21:10   0.00   45.0    44    7.4   155    12.7   802.9    0.00 
  83   21:20   0.00   44.8    44    7.5   156    11.0   802.8    0.00 
  83   21:30   0.00   44.5    46    5.5   174    10.4   802.8    0.00 
  83   21:40   0.00   43.7    48    4.8   181    11.2   802.8    0.00 
  83   21:50   0.00   44.8    45    8.4   158    12.8   802.8    0.00 
  83   22:00   0.00   44.8    45    8.7   162    15.9   802.7    0.00 
  83   22:10   0.00   44.5    46    7.0   162     9.9   802.8    0.00 
  83   22:20   0.00   44.5    46    7.6   162    12.8   802.7    0.00 
  83   22:30   0.00   44.9    44    9.7   151    13.6   802.6    0.00 
  83   22:40   0.00   44.7    45    9.1   151    13.5   802.5    0.00 
  83   22:50   0.00   44.4    46    8.3   144    11.3   802.4    0.00 
  83   23:00   0.00   44.1    47    7.2   148    13.3   802.4    0.00 
  83   23:10   0.00   44.0    48    7.5   139    12.3   802.4    0.00 
  83   23:20   0.00   43.7    49    7.6   135    11.1   802.4    0.00 
  83   23:30   0.00   43.5    50    6.4   131     8.9   802.3    0.00 
  83   23:40   0.00   43.3    51    4.0   173     9.1   802.3    0.00 
  83   23:50   0.00   42.9    52    4.6   136     6.7   802.3    0.00 
  84    0:00   0.00   42.4    54    1.3   150     4.1   802.3    0.00 
  84    0:10   0.00   42.3    54    2.2   144     3.6   802.3    0.00 
  84    0:20   0.00   41.1    58    3.9   314     6.8   802.3    0.00 
  84    0:30   0.00   42.3    53    2.7    69     4.2   802.2    0.00 
  84    0:40   0.00   42.9    52    3.2    99     4.2   802.3    0.00 
  84    0:50   0.00   43.2    51    2.4   344     6.6   802.2    0.00 
  84    1:00   0.00   44.1    48    5.6   335     9.5   802.1    0.00 
  84    1:10   0.00   42.7    59    6.2   325    10.1   802.2    0.00 
  84    1:20   0.00   41.9    64    6.0   326     9.2   802.1    0.00 
  84    1:30   0.00   41.4    66    5.8   340    10.6   802.0    0.00 
  84    1:40   0.00   40.6    72    7.3   358    11.2   801.9    0.00 
  84    1:50   0.00   39.4    75    8.2   347    12.4   802.0    0.00 
  84    2:00   0.00   38.1    80    8.3   348    13.0   802.0    0.00 
  84    2:10   0.00   37.3    84    7.5   349    10.8   802.0    0.00 
  84    2:20   0.00   37.1    86    8.7   340    12.8   801.9    0.00 
  84    2:30   0.00   36.7    88    9.3   340    13.3   801.7    0.00 
  84    2:40   0.00   36.2    90    9.5   340    14.0   801.6    0.00 
  84    2:50   0.00   36.0    91   10.0   344    16.5   801.6    0.00 
  84    3:00   0.00   35.6    91    9.2   341    12.9   801.6    0.01 
  84    3:10   0.00   34.7    91    7.6   335    12.1   801.6    0.00 
  84    3:20   0.00   33.7    92    5.5   335     8.6   801.5    0.01 
  84    3:30   0.00   32.8    93    4.7   338     6.5   801.4    0.01 
  84    3:40   0.00   32.5    93    3.4   343     4.7   801.4    0.00 
  84    3:50   0.00   32.2    94    3.1   343     4.7   801.4    0.00 
  84    4:00   0.00   32.1    94    3.6   338     5.8   801.3    0.00 
  84    4:10   0.00   32.0    94    3.4   334     5.0   801.2    0.00 
  84    4:20   0.00   32.0    94    4.0   342     5.6   801.2    0.00 
  84    4:30   0.00   32.0    94    3.9   338     5.7   801.2    0.00 
  84    4:40   0.00   32.0    95    4.3   328     7.2   801.2    0.00 
  84    4:50   0.00   31.9    95    5.7   330     7.8   801.1    0.00 

Return to Steptoe Valley WMA graphs page.


Western Regional Climate Center,wrcc@dri.edu